Terminal Aerodrome Forecast
Issued by NWS

Home | Current Version | Previous Version | Text Only | Print | Product List | Glossary On
Versions: 1 2 3 4 5 6 7 8 9 10 11 12 13
000
FTUS45 KFGZ 201741
TAFPRC
TAF
KPRC 201741Z 2018/2118 22008KT P6SM SCT080 BKN120
      TEMPO 2018/2021 -SHRA BKN090
     FM202100 VRB06KT P6SM BKN110
      TEMPO 2021/2024 VRB13G23KT 5SM TSRA BKN060CB
     FM210200 VRB03KT P6SM SCT110=

USA.gov is the U.S. government's official web portal to all federal, state and local government web resources and services.